Time;durP1;ratioP1;P1;durP2;ratioP2;P2;SDS_P1;SDS_P2;PMS_P1;PMS_P2;Temp;Humidity;BMP_temperature;BMP_pressure;BME280_temperature;BME280_humidity;BME280_pressure;Samples;Min_cycle;Max_cycle;Signal;HPM_P1;HPM_P2
2022/04/01 00:02:23;;;;;;;10.88;8.20;;;5.80;99.90;;;;;;4995570;28;20451;-85
2022/04/01 00:04:50;;;;;;;11.15;8.18;;;6.10;99.90;;;;;;5002119;28;20026;-85
2022/04/01 00:07:16;;;;;;;9.88;7.80;;;6.30;99.90;;;;;;5011331;28;20045;-85
2022/04/01 00:09:42;;;;;;;10.60;8.25;;;5.90;99.90;;;;;;5018215;28;20025;-83
2022/04/01 00:12:08;;;;;;;12.05;9.27;;;5.90;99.90;;;;;;5021094;28;20072;-89
2022/04/01 00:14:34;;;;;;;10.80;8.57;;;5.80;99.90;;;;;;4989314;28;20088;-86
2022/04/01 00:17:00;;;;;;;12.57;9.68;;;5.80;99.90;;;;;;4985219;28;20053;-84
2022/04/01 00:19:27;;;;;;;10.60;8.57;;;6.10;99.90;;;;;;5026288;28;20034;-87
2022/04/01 00:21:54;;;;;;;12.90;9.55;;;5.60;99.90;;;;;;4996472;28;20030;-87
2022/04/01 00:24:19;;;;;;;11.75;9.40;;;5.70;99.90;;;;;;5003110;28;20038;-84
2022/04/01 00:26:45;;;;;;;11.88;9.32;;;5.60;99.90;;;;;;4998887;28;20038;-84
2022/04/01 00:29:17;;;;;;;11.35;8.75;;;6.60;99.90;;;;;;4997084;28;20030;-87
2022/04/01 00:31:48;;;;;;;10.98;8.65;;;5.60;99.90;;;;;;5010682;28;20041;-85
2022/04/01 00:34:17;;;;;;;11.75;8.52;;;5.70;99.90;;;;;;5001179;28;20098;-87
2022/04/01 00:36:43;;;;;;;11.55;8.60;;;6.60;99.90;;;;;;5000235;28;20128;-85
2022/04/01 00:39:09;;;;;;;11.75;9.55;;;5.80;99.90;;;;;;5004849;28;20058;-86
2022/04/01 00:41:35;;;;;;;14.80;8.77;;;5.70;99.90;;;;;;4997666;28;20417;-85
2022/04/01 00:44:14;;;;;;;18.00;11.63;;;5.80;99.90;;;;;;4998900;28;20033;-84
2022/04/01 00:46:41;;;;;;;10.75;9.05;;;5.80;99.90;;;;;;5012292;28;20057;-87
2022/04/01 00:49:07;;;;;;;12.48;8.70;;;5.80;99.90;;;;;;5008438;28;20026;-86
2022/04/01 00:51:33;;;;;;;11.95;9.50;;;5.80;99.90;;;;;;5001019;28;20031;-85
2022/04/01 00:53:59;;;;;;;11.57;9.10;;;5.80;99.90;;;;;;4998744;28;20394;-87
2022/04/01 00:56:30;;;;;;;12.60;9.32;;;6.00;99.90;;;;;;5011987;28;20174;-84
2022/04/01 00:58:57;;;;;;;12.25;9.93;;;5.70;99.90;;;;;;5006770;28;20092;-87
2022/04/01 01:01:22;;;;;;;11.82;9.52;;;5.70;99.90;;;;;;4996576;28;20050;-84
2022/04/01 01:03:49;;;;;;;12.25;9.25;;;5.70;99.90;;;;;;5001772;28;20397;-85
2022/04/01 01:06:17;;;;;;;12.45;9.40;;;5.70;99.90;;;;;;4997981;28;20034;-84
2022/04/01 01:08:42;;;;;;;12.02;9.40;;;5.80;99.90;;;;;;5000158;28;20485;-86
2022/04/01 01:11:09;;;;;;;12.88;9.70;;;5.60;99.90;;;;;;5030998;28;20084;-86
2022/04/01 01:13:35;;;;;;;12.10;9.68;;;5.70;99.90;;;;;;4997965;28;20023;-85
2022/04/01 01:16:01;;;;;;;12.30;9.35;;;5.70;99.90;;;;;;4993847;28;20033;-83
2022/04/01 01:18:27;;;;;;;11.13;9.02;;;5.90;99.90;;;;;;4992351;28;20030;-84
2022/04/01 01:20:52;;;;;;;13.23;9.85;;;5.80;99.90;;;;;;5002341;28;20486;-86
2022/04/01 01:23:18;;;;;;;12.35;9.60;;;5.70;99.90;;;;;;4998850;28;20414;-86
2022/04/01 01:25:45;;;;;;;12.73;9.50;;;5.80;99.90;;;;;;5005227;28;20104;-86
2022/04/01 01:28:11;;;;;;;12.75;9.40;;;5.90;99.90;;;;;;4997071;28;20045;-85
2022/04/01 01:30:37;;;;;;;13.75;9.85;;;5.80;99.90;;;;;;5015980;28;20293;-82
2022/04/01 01:33:04;;;;;;;11.43;8.80;;;6.20;99.90;;;;;;5002790;28;20072;-85
2022/04/01 01:35:29;;;;;;;12.82;9.35;;;5.80;99.90;;;;;;5016054;28;20092;-85
2022/04/01 01:37:55;;;;;;;13.95;9.45;;;5.90;99.90;;;;;;5000643;28;20482;-87
2022/04/01 01:40:24;;;;;;;13.75;9.77;;;5.80;99.90;;;;;;5008274;28;20037;-85
2022/04/01 01:42:49;;;;;;;11.40;8.35;;;5.90;99.90;;;;;;5028288;28;20616;-85
2022/04/01 01:45:15;;;;;;;15.40;9.10;;;5.90;99.90;;;;;;5016421;28;20030;-87
2022/04/01 01:47:41;;;;;;;10.85;8.27;;;5.90;99.90;;;;;;4998388;28;20029;-86
2022/04/01 01:55:44;;;;;;;11.98;9.10;;;5.80;99.90;;;;;;5012178;28;20451;-85
2022/04/01 01:58:10;;;;;;;12.35;8.57;;;5.80;99.90;;;;;;4998934;28;20030;-86
2022/04/01 02:00:36;;;;;;;11.10;8.93;;;5.90;99.90;;;;;;4983288;28;20060;-85
2022/04/01 02:03:04;;;;;;;11.45;8.65;;;5.80;99.90;;;;;;5003247;28;20052;-87
2022/04/01 02:05:30;;;;;;;10.65;8.77;;;5.80;99.90;;;;;;5027953;28;20567;-86
2022/04/01 02:07:56;;;;;;;13.43;9.70;;;5.80;99.90;;;;;;5005994;28;20026;-86
2022/04/01 02:10:22;;;;;;;13.05;9.00;;;6.40;99.90;;;;;;5003672;28;20034;-88
2022/04/01 02:12:47;;;;;;;12.48;8.95;;;5.90;99.90;;;;;;4992631;28;20510;-88
2022/04/01 02:15:13;;;;;;;11.65;9.05;;;6.80;99.90;;;;;;4994182;28;20113;-85
2022/04/01 02:17:40;;;;;;;11.57;8.57;;;6.00;99.90;;;;;;4991978;28;20034;-86
2022/04/01 02:20:09;;;;;;;11.35;8.38;;;6.80;99.90;;;;;;5002946;28;20413;-89
2022/04/01 02:22:38;;;;;;;12.02;9.25;;;5.80;99.90;;;;;;5010183;28;20052;-84
2022/04/01 02:25:07;;;;;;;14.00;10.15;;;6.10;99.90;;;;;;5007863;28;20076;-85
2022/04/01 02:27:34;;;;;;;11.38;9.07;;;5.70;99.90;;;;;;5005190;28;20089;-86
2022/04/01 02:30:00;;;;;;;11.60;9.07;;;5.80;99.90;;;;;;5008640;28;20037;-85
2022/04/01 02:32:26;;;;;;;12.55;9.43;;;5.80;99.90;;;;;;5030716;28;20025;-85
2022/04/01 02:34:52;;;;;;;11.82;9.00;;;6.90;99.90;;;;;;5001435;28;20036;-87
2022/04/01 02:37:25;;;;;;;10.85;8.65;;;7.00;99.90;;;;;;5006305;28;20151;-84
2022/04/01 02:39:51;;;;;;;11.50;9.07;;;5.80;99.90;;;;;;4997802;28;20026;-85
2022/04/01 02:42:16;;;;;;;11.15;7.93;;;5.80;99.90;;;;;;4996353;28;20029;-81
2022/04/01 02:44:42;;;;;;;11.98;8.85;;;6.80;99.90;;;;;;4999544;28;20124;-87
2022/04/01 02:47:08;;;;;;;12.68;9.68;;;5.80;99.90;;;;;;4985378;28;20027;-86
2022/04/01 02:49:34;;;;;;;11.52;9.18;;;5.80;99.90;;;;;;4984027;28;20019;-83
2022/04/01 02:52:03;;;;;;;12.75;9.15;;;5.70;99.90;;;;;;4985515;28;20042;-86
2022/04/01 02:54:29;;;;;;;13.10;10.00;;;5.60;99.90;;;;;;5000983;28;20088;-85
2022/04/01 02:56:55;;;;;;;12.50;9.07;;;6.70;99.90;;;;;;5011585;28;20045;-88
2022/04/01 02:59:21;;;;;;;13.35;10.15;;;5.60;99.90;;;;;;5010386;28;20052;-84
2022/04/01 03:01:46;;;;;;;12.27;9.35;;;5.50;99.90;;;;;;4992041;28;20281;-86
2022/04/01 03:04:12;;;;;;;12.45;9.45;;;6.50;99.90;;;;;;5002790;28;20026;-86
2022/04/01 03:06:39;;;;;;;12.55;9.50;;;5.80;99.90;;;;;;4999674;28;20121;-87
2022/04/01 03:09:08;;;;;;;12.70;9.90;;;5.60;99.90;;;;;;5018593;28;20112;-84
2022/04/01 03:11:36;;;;;;;12.57;9.43;;;5.70;99.90;;;;;;4989044;28;20022;-85
2022/04/01 03:14:06;;;;;;;12.10;8.85;;;5.70;99.90;;;;;;4995963;28;20106;-85
2022/04/01 03:16:34;;;;;;;13.35;10.00;;;5.70;99.90;;;;;;5007728;23;20060;-82
2022/04/01 03:19:01;;;;;;;13.30;8.82;;;5.70;99.90;;;;;;5013250;28;20026;-83
2022/04/01 03:21:29;;;;;;;12.05;9.60;;;5.70;99.90;;;;;;5029840;28;20560;-86
2022/04/01 03:23:55;;;;;;;12.88;9.70;;;5.80;99.90;;;;;;5016318;28;20026;-83
2022/04/01 03:26:22;;;;;;;12.90;9.70;;;6.50;99.90;;;;;;5041389;28;20033;-87
2022/04/01 03:28:48;;;;;;;12.45;9.55;;;5.70;99.90;;;;;;5036482;28;20079;-87
2022/04/01 03:31:15;;;;;;;12.68;9.98;;;5.70;99.90;;;;;;5041035;28;20071;-83
2022/04/01 03:33:42;;;;;;;12.15;9.35;;;5.70;99.90;;;;;;5033808;28;20053;-84
2022/04/01 03:36:09;;;;;;;12.80;9.85;;;5.70;99.90;;;;;;5051148;28;20049;-80
2022/04/01 03:38:35;;;;;;;13.90;10.10;;;5.70;99.90;;;;;;5041703;28;20071;-82
2022/04/01 03:41:05;;;;;;;13.43;9.52;;;5.70;99.90;;;;;;5046090;28;20481;-82
2022/04/01 03:43:34;;;;;;;14.57;10.35;;;5.60;99.90;;;;;;5040424;28;20328;-85
2022/04/01 03:46:08;;;;;;;13.32;9.85;;;5.50;99.90;;;;;;5059507;28;20025;-81
2022/04/01 03:48:48;;;;;;;15.35;10.32;;;5.60;99.90;;;;;;5038733;28;20128;-81
2022/04/01 03:51:25;;;;;;;12.98;9.45;;;5.60;99.90;;;;;;5033598;28;20037;-86
2022/04/01 03:54:02;;;;;;;13.82;9.73;;;5.60;99.90;;;;;;5037879;28;20120;-83
2022/04/01 03:56:34;;;;;;;13.05;9.88;;;5.60;99.90;;;;;;5043006;28;20396;-82
2022/04/01 03:59:05;;;;;;;12.80;9.85;;;5.70;99.90;;;;;;5055501;28;20029;-84
2022/04/01 04:01:31;;;;;;;;;;;5.70;99.90;;;;;;5050287;28;20103;-88
2022/04/01 04:03:58;;;;;;;12.05;9.45;;;5.80;99.90;;;;;;5060742;28;19908;-84
2022/04/01 04:06:25;;;;;;;14.48;9.57;;;5.80;99.90;;;;;;5031996;28;20032;-82
2022/04/01 04:09:00;;;;;;;12.60;9.38;;;5.80;99.90;;;;;;5034111;28;20021;-78
2022/04/01 04:11:28;;;;;;;11.85;9.55;;;5.80;99.90;;;;;;5047568;28;20518;-82
2022/04/01 04:13:57;;;;;;;14.45;10.35;;;5.80;99.90;;;;;;5060254;28;20021;-84
2022/04/01 04:16:45;;;;;;;14.88;10.27;;;5.80;99.90;;;;;;5066457;28;20028;-87
2022/04/01 04:19:14;;;;;;;12.93;9.75;;;5.90;99.90;;;;;;5030612;28;20047;-82
2022/04/01 04:21:49;;;;;;;12.18;9.00;;;5.90;99.90;;;;;;5030088;28;20029;-83
2022/04/01 04:24:20;;;;;;;13.55;10.15;;;5.80;99.90;;;;;;5051634;28;20049;-83
2022/04/01 04:26:47;;;;;;;;;;;5.70;99.90;;;;;;5024232;28;20056;-85
2022/04/01 04:29:17;;;;;;;15.68;10.50;;;5.70;99.90;;;;;;5040924;28;20352;-80
2022/04/01 04:31:58;;;;;;;14.85;10.60;;;5.60;99.90;;;;;;5040224;28;20051;-87
2022/04/01 04:34:27;;;;;;;;;;;5.60;99.90;;;;;;5057004;28;20368;-83
2022/04/01 04:36:57;;;;;;;13.40;9.45;;;5.70;99.90;;;;;;5058420;28;19928;-83
2022/04/01 04:39:31;;;;;;;;;;;5.80;99.90;;;;;;5025837;28;20124;-86
2022/04/01 04:42:01;;;;;;;15.35;10.63;;;5.60;99.90;;;;;;5025474;28;19962;-86
2022/04/01 04:44:29;;;;;;;16.40;10.45;;;5.60;99.90;;;;;;5022172;28;20061;-82
2022/04/01 04:47:04;;;;;;;14.85;10.57;;;5.80;99.90;;;;;;5053127;28;20267;-81
2022/04/01 04:49:30;;;;;;;14.35;10.45;;;5.80;99.90;;;;;;5035834;28;20424;-81
2022/04/01 04:51:57;;;;;;;15.50;11.35;;;5.80;99.90;;;;;;5040174;28;20060;-81
2022/04/01 04:54:25;;;;;;;15.73;11.32;;;5.80;99.90;;;;;;5026053;28;20025;-86
2022/04/01 04:56:53;;;;;;;15.27;11.18;;;5.70;99.90;;;;;;5019489;28;20033;-82
2022/04/01 04:59:23;;;;;;;17.98;12.50;;;5.70;99.90;;;;;;5021396;28;20124;-79
2022/04/01 05:01:58;;;;;;;16.97;11.13;;;5.60;99.90;;;;;;5020920;28;20235;-81
2022/04/01 05:04:48;;;;;;;15.13;10.35;;;5.70;99.90;;;;;;5046896;28;20109;-83
2022/04/01 05:07:33;;;;;;;16.60;10.77;;;5.70;99.90;;;;;;5030644;28;20484;-81
2022/04/01 05:10:08;;;;;;;17.52;12.07;;;5.70;99.90;;;;;;5045179;28;20033;-79
2022/04/01 05:13:10;;;;;;;16.85;11.75;;;5.70;99.90;;;;;;5050513;28;20104;-83
2022/04/01 05:15:40;;;;;;;16.52;12.40;;;5.70;99.90;;;;;;5039189;28;20468;-84
2022/04/01 05:18:23;;;;;;;19.80;12.73;;;5.70;99.90;;;;;;5016748;28;20029;-85
2022/04/01 05:20:58;;;;;;;20.30;13.95;;;5.60;99.90;;;;;;5037190;28;20037;-83
2022/04/01 05:24:01;;;;;;;21.00;14.23;;;5.80;99.90;;;;;;5021122;28;20051;-80
2022/04/01 05:26:40;;;;;;;22.20;14.15;;;5.70;99.90;;;;;;5038842;28;20032;-84
2022/04/01 05:29:13;;;;;;;25.45;15.82;;;5.80;99.90;;;;;;5023629;28;20025;-83
2022/04/01 05:32:05;;;;;;;26.23;16.60;;;5.70;99.90;;;;;;5032428;28;20024;-85
2022/04/01 05:34:36;;;;;;;25.83;16.73;;;5.60;99.90;;;;;;5032287;28;20361;-80
2022/04/01 05:37:03;;;;;;;24.10;16.23;;;5.60;99.90;;;;;;5028598;28;20372;-84
2022/04/01 05:39:31;;;;;;;26.92;16.65;;;5.50;99.90;;;;;;5044733;28;20026;-83
2022/04/01 05:41:59;;;;;;;27.38;18.10;;;5.50;99.90;;;;;;5027268;28;20025;-83
2022/04/01 05:44:26;;;;;;;25.35;17.10;;;5.50;99.90;;;;;;5041198;28;20029;-82
2022/04/01 05:46:54;;;;;;;24.75;16.98;;;5.50;99.90;;;;;;5054703;28;20029;-78
2022/04/01 05:49:21;;;;;;;27.45;17.02;;;6.30;99.90;;;;;;5022537;28;20318;-79
2022/04/01 05:51:47;;;;;;;29.33;17.25;;;5.60;99.90;;;;;;5051541;28;20047;-81
2022/04/01 05:54:15;;;;;;;27.10;16.98;;;5.40;99.90;;;;;;5045272;28;20384;-83
2022/04/01 05:56:45;;;;;;;28.88;17.20;;;7.40;99.90;;;;;;5051959;28;20056;-77
2022/04/01 05:59:12;;;;;;;27.45;17.75;;;5.30;99.90;;;;;;5034849;28;20029;-80
2022/04/01 06:01:47;;;;;;;29.77;18.55;;;5.30;99.90;;;;;;5023156;28;20036;-81
2022/04/01 06:04:35;;;;;;;27.65;17.45;;;5.30;99.90;;;;;;5029411;28;20028;-80
2022/04/01 06:07:26;;;;;;;26.35;16.90;;;5.20;99.90;;;;;;5041476;28;20025;-81
2022/04/01 06:10:07;;;;;;;28.95;17.90;;;5.20;99.90;;;;;;5055143;28;20020;-81
2022/04/01 06:12:52;;;;;;;29.48;17.90;;;5.20;99.90;;;;;;5024995;28;20378;-83
2022/04/01 06:15:46;;;;;;;27.88;16.67;;;5.20;99.90;;;;;;5052632;28;20108;-80
2022/04/01 06:18:27;;;;;;;27.17;17.73;;;5.40;99.90;;;;;;5050240;28;20114;-82
2022/04/01 06:20:56;;;;;;;26.15;15.93;;;5.40;99.90;;;;;;5029678;28;20028;-79
2022/04/01 06:23:41;;;;;;;28.63;17.10;;;5.50;99.90;;;;;;5035564;28;20033;-79
2022/04/01 06:26:11;;;;;;;28.33;17.40;;;5.50;99.90;;;;;;5041339;28;20039;-79
2022/04/01 06:29:00;;;;;;;28.23;17.17;;;5.40;99.90;;;;;;5049027;28;20053;-80
2022/04/01 06:31:29;;;;;;;27.70;17.23;;;5.60;99.90;;;;;;5046871;28;20032;-81
2022/04/01 06:34:31;;;;;;;25.58;16.50;;;5.60;99.90;;;;;;5053280;28;20512;-81
2022/04/01 06:37:03;;;;;;;25.63;16.92;;;5.60;99.90;;;;;;5012336;28;20475;-80
2022/04/01 06:39:46;;;;;;;27.90;17.27;;;5.60;99.90;;;;;;5036398;28;20385;-82
2022/04/01 06:42:19;;;;;;;26.92;17.38;;;5.50;99.90;;;;;;5040001;28;20078;-79
2022/04/01 06:44:47;;;;;;;32.08;18.38;;;5.50;99.90;;;;;;5035497;28;20056;-79
2022/04/01 06:47:13;;;;;;;27.40;17.67;;;5.20;99.90;;;;;;5037721;28;20027;-81
2022/04/01 06:49:39;;;;;;;27.70;17.42;;;5.50;99.90;;;;;;5056331;28;20021;-83
2022/04/01 06:52:07;;;;;;;26.75;17.60;;;5.40;99.90;;;;;;5031570;28;20052;-82
2022/04/01 06:54:35;;;;;;;28.70;19.52;;;5.40;99.90;;;;;;5020923;28;20029;-79
2022/04/01 06:57:01;;;;;;;29.67;18.90;;;5.40;99.90;;;;;;5037776;28;20283;-88
2022/04/01 06:59:27;;;;;;;42.20;21.13;;;5.50;99.90;;;;;;5038349;28;20066;-82
2022/04/01 07:01:54;;;;;;;29.52;19.27;;;5.50;99.90;;;;;;5039550;28;20062;-83
2022/04/01 07:04:20;;;;;;;30.85;18.33;;;5.60;99.90;;;;;;5041970;28;20056;-85
2022/04/01 07:06:47;;;;;;;26.98;18.13;;;5.70;99.90;;;;;;5055166;28;20468;-78
2022/04/01 07:09:13;;;;;;;28.65;18.98;;;7.40;99.90;;;;;;5039664;28;20029;-82
2022/04/01 07:11:40;;;;;;;30.77;19.50;;;6.60;99.90;;;;;;5037242;28;20091;-84
2022/04/01 07:14:06;;;;;;;33.35;20.25;;;5.70;99.90;;;;;;5054175;28;20040;-81
2022/04/01 07:16:34;;;;;;;35.05;20.70;;;5.60;99.90;;;;;;5036359;28;20056;-81
2022/04/01 07:19:03;;;;;;;32.47;20.48;;;5.00;99.90;;;;;;5033362;28;20029;-82
2022/04/01 07:21:29;;;;;;;33.50;20.95;;;5.20;99.90;;;;;;5035391;28;20036;-80
2022/04/01 07:23:58;;;;;;;35.08;21.10;;;5.60;99.90;;;;;;5032602;28;20507;-83
2022/04/01 07:26:24;;;;;;;33.97;21.45;;;5.60;99.90;;;;;;5051104;28;20029;-82
2022/04/01 07:28:50;;;;;;;33.67;21.05;;;5.60;99.90;;;;;;5036688;28;20029;-79
2022/04/01 07:34:01;;;;;;;34.35;20.83;;;5.60;99.90;;;;;;5044947;28;20047;-81
2022/04/01 07:36:27;;;;;;;31.75;20.65;;;5.70;99.90;;;;;;5040622;28;20025;-84
2022/04/01 07:38:54;;;;;;;33.70;21.83;;;5.60;99.90;;;;;;5040766;28;20373;-81
2022/04/01 07:41:20;;;;;;;32.15;21.50;;;5.70;99.90;;;;;;5036809;28;20124;-82
2022/04/01 07:43:46;;;;;;;32.30;21.30;;;5.80;99.90;;;;;;5032483;28;20083;-80
2022/04/01 07:46:12;;;;;;;35.25;21.08;;;5.70;99.90;;;;;;5036225;28;20055;-81
2022/04/01 07:48:38;;;;;;;33.78;22.52;;;5.70;99.90;;;;;;5033137;28;20029;-81
2022/04/01 07:51:04;;;;;;;36.17;22.77;;;5.60;99.90;;;;;;5052609;28;20381;-84
2022/04/01 07:53:31;;;;;;;39.80;23.45;;;5.50;99.90;;;;;;5043319;28;20096;-81
2022/04/01 07:56:04;;;;;;;36.67;23.10;;;5.50;99.90;;;;;;5036062;28;20557;-81
2022/04/01 07:58:30;;;;;;;36.40;22.65;;;5.50;99.90;;;;;;5055099;28;20033;-82
2022/04/01 08:00:56;;;;;;;37.78;24.17;;;5.60;99.90;;;;;;5033924;28;20033;-83
2022/04/01 08:03:22;;;;;;;40.13;24.85;;;5.50;99.90;;;;;;5055158;28;20471;-84
2022/04/01 08:05:48;;;;;;;40.67;25.23;;;5.50;99.90;;;;;;5047993;28;20029;-83
2022/04/01 08:08:14;;;;;;;40.80;25.17;;;5.60;99.90;;;;;;5059407;28;20063;-87
2022/04/01 08:10:42;;;;;;;40.05;24.42;;;5.90;99.90;;;;;;5061763;28;20029;-82
2022/04/01 08:13:09;;;;;;;41.05;24.98;;;5.50;99.90;;;;;;5043266;28;20104;-86
2022/04/01 08:15:35;;;;;;;36.38;23.75;;;5.50;99.90;;;;;;5042155;28;20029;-84
2022/04/01 08:18:02;;;;;;;37.70;23.38;;;5.60;99.90;;;;;;5054618;28;20504;-81
2022/04/01 08:20:28;;;;;;;35.70;21.85;;;5.60;99.90;;;;;;5053630;28;20051;-82
2022/04/01 08:22:54;;;;;;;39.95;25.35;;;5.60;99.90;;;;;;5032386;28;20034;-81
2022/04/01 08:25:21;;;;;;;39.53;23.80;;;6.30;99.90;;;;;;5045333;28;20043;-86
2022/04/01 08:27:47;;;;;;;38.45;23.10;;;5.60;99.90;;;;;;5044067;28;20032;-80
2022/04/01 08:30:13;;;;;;;38.08;23.13;;;5.60;99.90;;;;;;5055866;28;20024;-84
2022/04/01 08:32:40;;;;;;;34.30;21.95;;;5.60;99.90;;;;;;5055420;28;20358;-81
2022/04/01 08:35:07;;;;;;;39.17;23.88;;;5.50;99.90;;;;;;5035371;28;20025;-85
2022/04/01 08:37:33;;;;;;;39.05;23.60;;;5.50;99.90;;;;;;5060229;28;20397;-85
2022/04/01 08:40:00;;;;;;;39.40;23.27;;;5.40;99.90;;;;;;5054199;28;20033;-82
2022/04/01 08:42:27;;;;;;;40.20;25.27;;;5.40;99.90;;;;;;5043062;28;20036;-84
2022/04/01 08:44:55;;;;;;;35.90;23.50;;;5.40;99.90;;;;;;5055242;28;20516;-86
2022/04/01 08:47:21;;;;;;;36.03;21.33;;;5.40;99.90;;;;;;5042965;28;20029;-86
2022/04/01 08:49:48;;;;;;;37.80;22.35;;;5.40;99.90;;;;;;5057571;28;20021;-84
2022/04/01 08:52:16;;;;;;;33.53;21.30;;;5.40;99.90;;;;;;5040481;28;20493;-87
2022/04/01 08:54:43;;;;;;;34.30;21.75;;;5.40;99.90;;;;;;5019441;28;20033;-83
2022/04/01 08:57:11;;;;;;;27.38;18.60;;;5.50;99.90;;;;;;5056279;28;20029;-86
2022/04/01 08:59:38;;;;;;;22.98;15.30;;;5.50;99.90;;;;;;5043832;28;20033;-89
2022/04/01 09:02:06;;;;;;;23.15;15.25;;;5.60;99.90;;;;;;5042581;28;20033;-88
2022/04/01 09:04:34;;;;;;;21.95;14.70;;;5.70;99.90;;;;;;5038985;28;20056;-82
2022/04/01 09:07:30;;;;;;;20.60;13.27;;;5.80;99.90;;;;;;5047208;28;20091;-81
2022/04/01 09:10:07;;;;;;;26.73;15.65;;;5.90;99.90;;;;;;5024612;28;20069;-87
2022/04/01 09:12:34;;;;;;;21.40;13.52;;;5.90;99.90;;;;;;5038136;28;20021;-88
2022/04/01 09:15:06;;;;;;;22.08;14.73;;;5.90;99.90;;;;;;5029019;28;20148;-85
2022/04/01 09:17:41;;;;;;;20.67;13.55;;;5.90;99.90;;;;;;5037548;28;20040;-82
2022/04/01 09:20:09;;;;;;;20.88;13.88;;;5.90;99.90;;;;;;5041860;28;20117;-86
2022/04/01 09:22:37;;;;;;;20.10;13.35;;;5.90;99.90;;;;;;5039794;28;20029;-83
2022/04/01 09:25:09;;;;;;;20.63;13.35;;;6.00;99.90;;;;;;5036352;28;20059;-82
2022/04/01 09:27:52;;;;;;;18.35;12.93;;;6.00;99.90;;;;;;5056843;28;20029;-84
2022/04/01 09:30:21;;;;;;;17.83;11.88;;;6.10;99.90;;;;;;5048762;28;20051;-84
2022/04/01 09:32:53;;;;;;;18.58;12.23;;;6.20;99.90;;;;;;5037318;28;20036;-88
2022/04/01 09:35:24;;;;;;;16.38;11.20;;;6.20;99.90;;;;;;5041102;28;20036;-87
2022/04/01 09:37:58;;;;;;;34.00;13.02;;;6.20;99.90;;;;;;5052724;28;20028;-82
2022/04/01 09:40:25;;;;;;;19.38;11.43;;;6.20;99.90;;;;;;5054339;28;20599;-85
2022/04/01 09:42:57;;;;;;;17.48;11.77;;;6.30;99.90;;;;;;5054647;28;20036;-87
2022/04/01 09:45:32;;;;;;;16.40;11.60;;;6.40;99.90;;;;;;5036817;28;20504;-83
2022/04/01 09:48:01;;;;;;;16.63;11.77;;;6.30;99.90;;;;;;5057288;28;20397;-88
2022/04/01 09:50:38;;;;;;;16.17;11.50;;;6.30;99.90;;;;;;5039979;28;20481;-85
2022/04/01 09:53:11;;;;;;;16.05;11.20;;;6.40;99.90;;;;;;5040015;28;20025;-86
2022/04/01 09:55:41;;;;;;;15.27;10.75;;;6.40;99.90;;;;;;5048590;28;20079;-86
2022/04/01 09:58:08;;;;;;;14.05;9.75;;;6.50;99.90;;;;;;5033410;28;20035;-78
2022/04/01 10:00:40;;;;;;;13.88;9.88;;;6.50;99.90;;;;;;5050159;28;20060;-79
2022/04/01 10:03:07;;;;;;;14.25;10.38;;;6.60;99.90;;;;;;5047494;28;20424;-84
2022/04/01 10:05:37;;;;;;;15.18;10.48;;;6.60;99.90;;;;;;5058554;28;20036;-83
2022/04/01 10:08:11;;;;;;;15.68;10.73;;;6.60;99.90;;;;;;5021026;28;20052;-86
2022/04/01 10:10:40;;;;;;;13.55;10.35;;;6.50;99.90;;;;;;5036548;28;20389;-79
2022/04/01 10:13:11;;;;;;;14.00;10.68;;;6.60;99.90;;;;;;5035999;28;20173;-87
2022/04/01 10:15:37;;;;;;;;;;;6.60;99.90;;;;;;5052477;28;20063;-86
2022/04/01 10:18:08;;;;;;;13.57;9.80;;;6.60;99.90;;;;;;5053782;28;19912;-87
2022/04/01 10:20:37;;;;;;;13.95;10.07;;;7.50;99.90;;;;;;5054837;28;20033;-84
2022/04/01 10:23:06;;;;;;;15.10;10.15;;;6.90;99.90;;;;;;5037314;28;20044;-85
2022/04/01 10:25:39;;;;;;;13.27;9.50;;;7.00;99.90;;;;;;5052354;28;20473;-84
2022/04/01 10:28:05;;;;;;;15.50;10.90;;;7.00;99.90;;;;;;5054016;28;20225;-85
2022/04/01 10:30:34;;;;;;;12.63;8.48;;;7.00;99.90;;;;;;5039910;28;20024;-83
2022/04/01 10:33:07;;;;;;;11.00;8.20;;;7.10;99.90;;;;;;5036479;28;20501;-82
2022/04/01 10:35:37;;;;;;;11.35;8.27;;;7.10;99.90;;;;;;5036041;28;20055;-87
2022/04/01 10:38:06;;;;;;;11.13;8.23;;;7.10;99.90;;;;;;5038065;28;20363;-88
2022/04/01 10:40:37;;;;;;;11.10;8.27;;;7.10;99.90;;;;;;5045933;28;20051;-87
2022/04/01 10:43:27;;;;;;;12.48;8.50;;;7.00;99.90;;;;;;5039489;28;20033;-84
2022/04/01 10:46:01;;;;;;;11.45;8.52;;;7.00;99.90;;;;;;5044804;28;20496;-88
2022/04/01 10:51:38;;;;;;;13.50;7.72;;;7.00;99.90;;;;;;5060766;28;20035;-83
2022/04/01 10:54:12;;;;;;;;;;;7.20;99.90;;;;;;5043302;28;20025;-84
2022/04/01 10:56:43;;;;;;;11.07;8.15;;;7.20;99.90;;;;;;5040286;28;19904;-87
2022/04/01 10:59:40;;;;;;;11.93;8.27;;;7.10;99.90;;;;;;5014641;28;20049;-87
2022/04/01 11:02:10;;;;;;;9.85;7.30;;;7.10;99.90;;;;;;5030859;28;20029;-86
2022/04/01 11:04:44;;;;;;;11.73;8.60;;;7.00;99.90;;;;;;5057960;28;20025;-87
2022/04/01 11:07:36;;;;;;;12.50;8.18;;;7.10;99.90;;;;;;5047688;28;20061;-87
2022/04/01 11:10:32;;;;;;;9.80;7.35;;;7.20;99.90;;;;;;5020327;28;20025;-87
2022/04/01 11:13:29;;;;;;;9.77;7.15;;;7.30;99.90;;;;;;5058059;28;20029;-88
2022/04/01 11:16:15;;;;;;;8.63;6.47;;;7.50;99.90;;;;;;5039128;28;20025;-83
2022/04/01 11:19:11;;;;;;;8.95;6.85;;;7.40;99.90;;;;;;5022240;28;20045;-85
2022/04/01 11:21:37;;;;;;;11.98;7.75;;;7.30;99.90;;;;;;5040512;28;20116;-84
2022/04/01 11:24:20;;;;;;;9.80;6.65;;;7.20;99.90;;;;;;5023992;28;20095;-84
2022/04/01 11:26:47;;;;;;;9.55;6.75;;;7.20;99.90;;;;;;5026786;28;20240;-82
2022/04/01 11:29:19;;;;;;;10.70;6.93;;;7.10;99.90;;;;;;5068274;28;20035;-82
2022/04/01 11:31:47;;;;;;;9.63;7.10;;;7.10;99.90;;;;;;5044690;28;20080;-83
2022/04/01 11:34:15;;;;;;;11.15;7.82;;;7.40;99.90;;;;;;5057208;28;20024;-84
2022/04/01 11:36:47;;;;;;;10.00;7.40;;;6.80;99.90;;;;;;5040842;28;20141;-87
2022/04/01 11:39:29;;;;;;;10.75;7.80;;;6.80;99.90;;;;;;5047881;28;20032;-86
2022/04/01 11:42:15;;;;;;;10.88;6.85;;;6.90;99.90;;;;;;5058290;28;20495;-87
2022/04/01 11:45:06;;;;;;;11.32;7.47;;;7.10;99.90;;;;;;5073974;28;20116;-86
2022/04/01 11:47:37;;;;;;;11.98;7.05;;;7.10;99.90;;;;;;5042291;28;20021;-84
2022/04/01 11:50:07;;;;;;;;;;;7.10;99.90;;;;;;5057393;28;20638;-84
2022/04/01 11:52:41;;;;;;;10.48;6.90;;;7.00;99.90;;;;;;5043619;28;19912;-81
2022/04/01 11:55:11;;;;;;;10.88;7.63;;;7.10;99.90;;;;;;5049146;28;20047;-82
2022/04/01 11:57:38;;;;;;;10.38;7.32;;;7.40;99.90;;;;;;5046937;28;20037;-83
2022/04/01 12:00:13;;;;;;;12.10;7.65;;;7.00;99.90;;;;;;5042997;28;20044;-84
2022/04/01 12:02:42;;;;;;;9.90;7.38;;;7.00;99.90;;;;;;5035899;28;20040;-84
2022/04/01 12:05:09;;;;;;;10.77;7.35;;;7.10;99.90;;;;;;5032945;28;20457;-85
2022/04/01 12:10:26;;;;;;;10.95;7.38;;;6.90;99.90;;;;;;5046836;28;20039;-87
2022/04/01 12:13:00;;;;;;;10.48;6.97;;;6.90;99.90;;;;;;5045585;28;20404;-84
2022/04/01 12:15:38;;;;;;;10.20;7.45;;;7.00;99.90;;;;;;5046098;28;20504;-84
2022/04/01 12:18:08;;;;;;;14.18;8.18;;;6.80;99.90;;;;;;5073880;28;20025;-84
2022/04/01 12:20:45;;;;;;;9.82;7.43;;;6.80;99.90;;;;;;5060204;28;20025;-86
2022/04/01 12:23:12;;;;;;;10.50;6.93;;;6.70;99.90;;;;;;5060955;28;20096;-82
2022/04/01 12:25:40;;;;;;;11.35;6.88;;;6.80;99.90;;;;;;5044605;28;20025;-85
2022/04/01 12:28:11;;;;;;;10.23;7.32;;;7.90;99.90;;;;;;5045896;28;20033;-85
2022/04/01 12:30:38;;;;;;;10.82;7.00;;;6.80;99.90;;;;;;5043081;28;20021;-87
2022/04/01 12:33:16;;;;;;;9.32;6.43;;;6.70;99.90;;;;;;5042351;28;20035;-84
2022/04/01 12:36:01;;;;;;;10.57;7.00;;;6.70;99.90;;;;;;5054393;28;20025;-82
2022/04/01 12:38:35;;;;;;;8.82;6.60;;;6.70;99.90;;;;;;5037735;28;20055;-85
2022/04/01 12:41:04;;;;;;;10.00;6.30;;;6.80;99.90;;;;;;5042508;28;20052;-84
2022/04/01 12:43:33;;;;;;;10.90;6.82;;;6.80;99.90;;;;;;5057807;28;20120;-85
2022/04/01 12:46:09;;;;;;;10.43;6.40;;;6.80;99.90;;;;;;5039908;28;20022;-81
2022/04/01 12:48:48;;;;;;;9.48;6.63;;;6.80;99.90;;;;;;5057967;28;20029;-82
2022/04/01 12:51:34;;;;;;;9.18;6.80;;;6.80;99.90;;;;;;5054242;28;20039;-86
2022/04/01 12:54:04;;;;;;;7.90;5.55;;;6.80;99.90;;;;;;5042252;28;20066;-83
2022/04/01 12:56:30;;;;;;;;;;;6.90;99.90;;;;;;5045658;28;20039;-83
2022/04/01 12:58:59;;;;;;;10.13;6.18;;;6.90;99.90;;;;;;5046991;28;19936;-84
2022/04/01 13:01:30;;;;;;;9.95;6.63;;;6.90;99.90;;;;;;5051748;28;20052;-86
2022/04/01 13:03:57;;;;;;;10.00;6.30;;;6.80;99.90;;;;;;5054794;28;20040;-81
2022/04/01 13:06:27;;;;;;;7.95;5.85;;;6.80;99.90;;;;;;5038072;28;20040;-84
2022/04/01 13:09:04;;;;;;;9.48;5.93;;;7.00;99.90;;;;;;5038650;28;20108;-82
2022/04/01 13:11:41;;;;;;;8.68;6.38;;;6.80;99.90;;;;;;5040547;28;20592;-83
2022/04/01 13:14:27;;;;;;;10.32;6.47;;;6.80;99.90;;;;;;5050476;28;20056;-86
2022/04/01 13:16:56;;;;;;;9.18;6.35;;;6.70;99.90;;;;;;5059761;28;20032;-84
2022/04/01 13:19:33;;;;;;;9.45;6.80;;;6.70;99.90;;;;;;5035814;28;20481;-87